GMMC

Anfa Airport

Casablanca, Morocco
METAR GMMC 100700Z 18005KT CAVOK 09/09 Q1024
Observed Flight Rules
Dec-10 @ 07:00 UTC (37 minutes ago) Visual Flight Rules
Wind Visibility Clouds
180° at 5 knots 10,000+ meters
  • Clear skies
Temperatures Readings
Current 9°C / 48°F
Dewpoint 9°C / 48°F
Humidity 100%
Altimeter 30.24" Hg
Pressure 1024 hPa
Elevation 62
METAR GMMC 100700Z 18005KT CAVOK 09/09 Q1024
Observed Flight Rules
Dec-10 @ 07:00 UTC
(37 minutes ago)
VFR
Wind Visibility
180° at 5 knots 10,000+ meters
Clouds
  • Clear skies
Temperature Dewpoint
9°C / 48°F 9°C / 48°F
Humidity Altimeter Pressure
100% 30.24" Hg 1024 hPa